Domov               UVHVVR             MKGP            O straneh              
ZDRAVSTVENO VARSTVO RASTLIN
  MREŽA AGROMET. POSTAJ
 ► PROGNOSTIČNA OBVESTILA
AGROMETEOROLOŠKI PODATKI -
ARSO
OBVLADOVANJE TVEGANJ ZARADI
NEUGODNIH VREMENSKIH RAZMER
  ► NARAVNE NESREČE
  ► SUŠA/MOČA
  ► NAMAKANJE
  ► ŽLED (gozdarstvo)
KARTOGRAFSKI PRIKAZI
SPLETNE POVEZAVE
PROJEKTI IN PUBLIKACIJE

AGROMETEOROLOŠKA MREŽA: VREMENSKE POSTAJE IN FENOLOŠKA OPAZOVANJA

Pregled podatkov za lokacijo Branik, meteorološka postaja 42394

Pregled senzorjev na lokaciji

ID Ime Zadnja
vrednost
Datum
zadnje
spremembe
Tip
senzorja
2188 Temperatura 2 m ( °C) 27,61 °C 27.6.2017 10:00 50YA
2189 Relativna vlaga 2 m (% RH) 53,48 % RH 27.6.2017 10:00 50YA
2190 Omočenost lista (U) 0 U 27.6.2017 10:00 A730WET
2191 Hitrost vetra (km/h) 1,21 km/h 27.6.2017 10:00 566.2S-176 (200km/h)
2192 Padavine 0.2 mm (mm) 0 mm 27.6.2017 10:00 Rain-O-Matic
2193 Smer vetra (°) 329,59 ° 27.6.2017 10:00 566.2S-130

Pregled podatkov zadnjih 24 ur

Zap.
št.
Datum in čas Branik
Hitrost
vetra
Omočenost
lista
Padavine
0.2
mm
Relativna
vlaga
2
m
Smer
vetra
Temperatura
2
m
0 27.6.2017 09:00 1,21 0 0 53,48 329,59 27,61
1 27.6.2017 08:30 1,15 0 0 53,83 83,11 26,5
2 27.6.2017 08:00 0,12 0 0 60,83 84,1 24,12
3 27.6.2017 07:30 0,19 0 0 74,89 82,25 21
4 27.6.2017 07:00 0,14 2 0 76 58,38 20,29
5 27.6.2017 06:30 1,13 0 0 77,42 64,68 19,59
6 27.6.2017 06:00 0,35 0 0 84,62 82,85 18,11
7 27.6.2017 05:30 0,12 0 0 87,71 79,3 17,36
8 27.6.2017 05:00 0,13 0 0 89,89 87,62 16,88
9 27.6.2017 04:30 0,47 0 0 89,21 71,81 16,91
10 27.6.2017 04:00 0,26 0 0 87,26 88,75 17,17
11 27.6.2017 03:30 0,26 0 0 85,1 105,12 17,42
12 27.6.2017 03:00 0,35 1 0 86,4 89,05 17,33
13 27.6.2017 02:30 0,34 10 0 86,31 76,33 17,39
14 27.6.2017 02:00 0,72 10 0 86,99 103,19 17,2
15 27.6.2017 01:30 0,45 10 0 88,78 77,55 17,08
16 27.6.2017 01:00 0,61 10 0 90,01 71,93 16,98
17 27.6.2017 00:30 0,38 10 0 93,65 81,33 16,63
18 27.6.2017 00:00 0,19 10 0 96,03 79,08 16,53
19 26.6.2017 23:30 0,19 10 0 91,94 104,96 17,14
20 26.6.2017 23:00 0,37 10 0 95,5 86,44 16,99
21 26.6.2017 22:30 0,18 9 0 95,03 100,24 17,3
22 26.6.2017 22:00 0,16 6 0 99,1 163,28 17,29
23 26.6.2017 21:30 0,14 3 0 97,15 163,29 17,64
24 26.6.2017 21:00 0,13 2 0 90,71 163,29 18,32
25 26.6.2017 20:30 0,13 1 0 84,91 163,29 19,15
26 26.6.2017 20:00 0,12 0 0 77,25 163,28 20,37
27 26.6.2017 19:30 0,11 0 0 70,47 163,28 22,02
28 26.6.2017 19:00 0,13 0 0 60,88 174,75 24,28
29 26.6.2017 18:30 0,61 0 0 54,11 164,28 26,19
30 26.6.2017 18:00 0,32 0 0 45,98 192,46 28,48
31 26.6.2017 17:30 0,56 0 0 40,49 210,82 29,64
32 26.6.2017 17:00 1,46 0 0 38,5 262,83 30,47
33 26.6.2017 16:30 1,74 0 0 36,55 274,44 30,49
34 26.6.2017 16:00 1,18 0 0 36,3 281,58 30,69
35 26.6.2017 15:30 2,39 0 0 36,19 258,83 30,63
36 26.6.2017 15:00 2,66 0 0 37,5 262,24 30,53
37 26.6.2017 14:30 5,34 0 0 39,99 270,9 30,26
38 26.6.2017 14:00 3,94 0 0 38,45 265,07 30,43
39 26.6.2017 13:30 5,22 0 0 38,95 272,82 29,67
40 26.6.2017 13:00 1,52 0 0 36,63 250,6 30,66
41 26.6.2017 12:30 2,9 0 0 37,22 257,91 30,37
42 26.6.2017 12:00 1,7 0 0 33,84 275,22 30,53
43 26.6.2017 11:30 0,31 0 0 33,54 307,18 30,56
44 26.6.2017 11:00 0,12 0 0 36,14 350,05 29,85
© 2011 Ministrstvo za kmetijstvo, gozdarstvo in prehrano. Vse pravice pridržane.